Time;durP1;ratioP1;P1;durP2;ratioP2;P2;SDS_P1;SDS_P2;PMS_P1;PMS_P2;Temp;Humidity;BMP_temperature;BMP_pressure;BME280_temperature;BME280_humidity;BME280_pressure;Samples;Min_cycle;Max_cycle;Signal;HPM_P1;HPM_P2
2022/04/29 00:01:03;;;;;;;8.90;6.90;;;11.50;99.90;;;;;;4997210;28;20894;-51
2022/04/29 00:03:30;;;;;;;7.10;6.50;;;11.50;99.90;;;;;;4997220;28;20535;-52
2022/04/29 00:05:57;;;;;;;8.07;7.30;;;11.40;99.90;;;;;;4997404;28;20878;-51
2022/04/29 00:08:24;;;;;;;11.73;8.10;;;11.40;99.90;;;;;;4996952;28;20472;-52
2022/04/29 00:10:56;;;;;;;8.27;7.57;;;11.50;99.90;;;;;;4996878;28;20451;-51
2022/04/29 00:13:25;;;;;;;9.60;7.50;;;11.50;99.90;;;;;;4997239;28;20494;-51
2022/04/29 00:15:53;;;;;;;13.33;7.40;;;11.40;99.90;;;;;;4997008;28;20451;-51
2022/04/29 00:18:21;;;;;;;6.90;6.30;;;11.20;99.90;;;;;;4997090;28;20476;-52
2022/04/29 00:20:49;;;;;;;8.23;7.33;;;11.10;99.90;;;;;;4996819;28;20930;-51
2022/04/29 00:23:16;;;;;;;7.40;6.70;;;11.20;99.90;;;;;;4996869;28;20444;-52
2022/04/29 00:25:44;;;;;;;9.17;8.37;;;11.20;99.90;;;;;;4996720;28;20498;-51
2022/04/29 00:28:11;;;;;;;7.60;6.87;;;11.20;99.90;;;;;;4996925;28;20507;-51
2022/04/29 00:30:40;;;;;;;7.13;6.47;;;11.20;99.90;;;;;;4996741;28;20902;-51
2022/04/29 00:33:07;;;;;;;8.17;6.63;;;11.10;99.90;;;;;;4996496;28;20512;-51
2022/04/29 00:35:35;;;;;;;7.47;6.87;;;11.00;99.90;;;;;;4996590;28;20487;-51
2022/04/29 00:38:02;;;;;;;7.97;7.37;;;10.80;99.90;;;;;;4997007;28;20587;-51
2022/04/29 00:40:32;;;;;;;7.77;7.03;;;10.90;99.90;;;;;;4996393;28;20543;-51
2022/04/29 00:43:00;;;;;;;7.77;6.97;;;10.90;99.90;;;;;;4996431;28;20583;-51
2022/04/29 00:45:27;;;;;;;7.40;6.80;;;11.00;99.90;;;;;;4996469;28;20484;-51
2022/04/29 00:47:56;;;;;;;7.60;6.80;;;11.00;99.90;;;;;;4996552;28;20546;-51
2022/04/29 00:50:26;;;;;;;7.60;6.80;;;10.90;99.90;;;;;;4996272;28;20531;-52
2022/04/29 00:52:55;;;;;;;7.30;6.70;;;10.90;99.90;;;;;;4996327;28;20926;-51
2022/04/29 00:55:23;;;;;;;10.00;7.17;;;10.90;99.90;;;;;;4996252;28;20495;-51
2022/04/29 00:57:53;;;;;;;7.80;7.10;;;10.80;99.90;;;;;;4996057;28;20559;-51
2022/04/29 01:00:22;;;;;;;7.47;6.73;;;10.80;99.90;;;;;;4996177;28;20527;-51
2022/04/29 01:02:51;;;;;;;7.73;7.03;;;10.70;99.90;;;;;;4996436;28;20444;-51
2022/04/29 01:05:22;;;;;;;8.00;7.30;;;10.70;99.90;;;;;;4995968;28;20452;-51
2022/04/29 01:07:51;;;;;;;9.40;7.53;;;10.80;99.90;;;;;;4996282;28;20476;-51
2022/04/29 01:10:20;;;;;;;8.80;8.00;;;10.70;99.90;;;;;;4995840;28;20935;-51
2022/04/29 01:12:50;;;;;;;11.13;8.03;;;10.70;99.90;;;;;;4995903;28;20476;-51
2022/04/29 01:15:18;;;;;;;7.97;7.27;;;10.80;99.90;;;;;;4995873;28;20487;-51
2022/04/29 01:17:48;;;;;;;7.80;7.00;;;10.60;99.90;;;;;;4995967;28;20551;-51
2022/04/29 01:20:17;;;;;;;10.00;7.50;;;10.50;99.90;;;;;;4995738;28;20452;-51
2022/04/29 01:22:46;;;;;;;7.30;6.50;;;10.50;99.90;;;;;;4995646;28;20994;-51
2022/04/29 01:25:14;;;;;;;12.77;7.70;;;10.40;99.90;;;;;;4995863;28;20448;-51
2022/04/29 01:27:41;;;;;;;8.17;7.40;;;10.40;99.90;;;;;;4995500;28;20566;-51
2022/04/29 01:30:11;;;;;;;8.00;7.30;;;10.40;99.90;;;;;;4995622;28;20452;-51
2022/04/29 01:32:39;;;;;;;8.60;7.80;;;10.40;99.90;;;;;;4995389;28;20533;-51
2022/04/29 01:35:09;;;;;;;8.53;7.73;;;10.50;99.90;;;;;;4995719;28;21001;-51
2022/04/29 01:37:36;;;;;;;8.83;6.97;;;10.40;99.90;;;;;;4994539;28;20515;-51
2022/04/29 01:40:06;;;;;;;8.00;7.30;;;10.40;99.90;;;;;;4995495;28;20448;-51
2022/04/29 01:42:34;;;;;;;8.17;7.47;;;10.60;99.90;;;;;;4995286;28;20486;-51
2022/04/29 01:45:01;;;;;;;8.80;8.00;;;10.40;99.90;;;;;;4995619;28;20452;-51
2022/04/29 01:47:28;;;;;;;8.83;7.93;;;10.40;99.90;;;;;;4995117;28;20449;-51
2022/04/29 01:49:56;;;;;;;10.17;8.60;;;10.50;99.90;;;;;;4995458;28;20535;-51
2022/04/29 01:52:23;;;;;;;8.80;8.00;;;10.50;99.90;;;;;;4995107;28;20538;-51
2022/04/29 01:54:51;;;;;;;8.80;7.63;;;10.50;99.90;;;;;;4994443;28;20478;-51
2022/04/29 01:57:19;;;;;;;8.03;7.40;;;10.50;99.90;;;;;;4995342;28;20452;-51
2022/04/29 01:59:47;;;;;;;10.03;8.53;;;10.40;99.90;;;;;;4995288;28;20556;-53
2022/04/29 02:02:15;;;;;;;9.70;7.40;;;10.40;99.90;;;;;;4995297;28;20951;-51
2022/04/29 02:04:42;;;;;;;9.40;8.43;;;10.40;99.90;;;;;;4994914;28;20463;-51
2022/04/29 02:07:10;;;;;;;9.87;7.63;;;10.30;99.90;;;;;;4995140;28;20484;-51
2022/04/29 02:09:37;;;;;;;9.17;7.77;;;10.30;99.90;;;;;;4995122;28;20498;-51
2022/04/29 02:12:05;;;;;;;8.83;8.00;;;10.30;99.90;;;;;;4995044;28;20870;-51
2022/04/29 02:14:35;;;;;;;8.77;7.80;;;10.30;99.90;;;;;;4994961;28;20845;-51
2022/04/29 02:17:03;;;;;;;8.73;7.97;;;10.10;99.90;;;;;;4994734;28;20483;-51
2022/04/29 02:19:31;;;;;;;8.60;7.90;;;10.20;99.90;;;;;;4994597;28;20503;-51
2022/04/29 02:21:58;;;;;;;8.13;7.43;;;10.20;99.90;;;;;;4994675;28;20538;-51
2022/04/29 02:24:26;;;;;;;8.00;7.30;;;10.10;99.90;;;;;;4994624;28;20539;-51
2022/04/29 02:26:53;;;;;;;8.13;7.43;;;10.00;99.90;;;;;;4994797;28;20452;-51
2022/04/29 02:29:20;;;;;;;9.60;7.50;;;10.10;99.90;;;;;;4994647;28;20566;-51
2022/04/29 02:31:50;;;;;;;9.03;8.13;;;10.10;99.90;;;;;;4994538;28;20539;-51
2022/04/29 02:34:17;;;;;;;9.63;8.63;;;10.00;99.90;;;;;;4994633;28;20511;-51
2022/04/29 02:36:44;;;;;;;9.57;8.67;;;10.00;99.90;;;;;;4994354;28;20487;-51
2022/04/29 02:39:11;;;;;;;9.40;8.37;;;10.00;99.90;;;;;;4994238;28;20472;-51
2022/04/29 02:41:39;;;;;;;9.27;8.23;;;10.00;99.90;;;;;;4994435;28;20922;-51
2022/04/29 02:44:06;;;;;;;8.80;8.03;;;9.90;99.90;;;;;;4994524;28;20452;-51
2022/04/29 02:46:33;;;;;;;9.30;8.40;;;10.00;99.90;;;;;;4994182;28;20538;-51
2022/04/29 02:49:02;;;;;;;8.73;8.03;;;10.00;99.90;;;;;;4994221;28;20558;-51
2022/04/29 02:51:29;;;;;;;8.30;7.60;;;9.90;99.90;;;;;;4994386;28;20452;-51
2022/04/29 02:53:56;;;;;;;9.20;8.37;;;10.00;99.90;;;;;;4994268;28;20494;-51
2022/04/29 02:56:23;;;;;;;9.20;8.17;;;9.90;99.90;;;;;;4994134;28;20458;-51
2022/04/29 02:58:50;;;;;;;9.13;8.23;;;9.90;99.90;;;;;;4994233;28;20498;-54
2022/04/29 03:01:17;;;;;;;9.20;8.30;;;;;;;;;;4993961;28;20450;-51
2022/04/29 03:03:45;;;;;;;9.40;8.60;;;9.70;99.90;;;;;;4994009;28;20452;-51
2022/04/29 03:06:13;;;;;;;9.37;8.47;;;9.70;99.90;;;;;;4994050;28;20448;-51
2022/04/29 03:08:40;;;;;;;9.80;9.00;;;9.70;99.90;;;;;;4994156;28;20470;-51
2022/04/29 03:11:07;;;;;;;11.40;8.93;;;9.70;99.90;;;;;;4993865;28;20939;-51
2022/04/29 03:13:35;;;;;;;9.33;8.53;;;9.60;99.90;;;;;;4993863;28;20472;-51
2022/04/29 03:16:02;;;;;;;9.93;8.93;;;9.60;99.90;;;;;;4994144;28;20554;-51
2022/04/29 03:18:29;;;;;;;8.87;8.00;;;9.70;99.90;;;;;;4994100;28;20471;-51
2022/04/29 03:20:57;;;;;;;10.80;7.80;;;9.70;99.90;;;;;;4993809;28;20452;-51
2022/04/29 03:23:26;;;;;;;9.90;8.90;;;9.60;99.90;;;;;;4994070;28;20447;-51
2022/04/29 03:25:54;;;;;;;8.83;8.03;;;9.70;99.90;;;;;;4994144;28;20452;-51
2022/04/29 03:28:21;;;;;;;9.17;8.27;;;9.70;99.90;;;;;;4994029;28;21041;-51
2022/04/29 03:30:49;;;;;;;9.50;8.60;;;9.70;99.90;;;;;;4993982;28;20479;-51
2022/04/29 03:33:16;;;;;;;10.10;8.00;;;9.80;99.90;;;;;;4993625;28;20483;-51
2022/04/29 03:35:45;;;;;;;9.87;9.07;;;9.80;99.90;;;;;;4993575;28;20483;-51
2022/04/29 03:38:12;;;;;;;9.10;8.30;;;9.90;99.90;;;;;;4993988;28;21045;-51
2022/04/29 03:40:41;;;;;;;9.93;8.93;;;9.90;99.90;;;;;;4993811;28;20867;-51
2022/04/29 03:43:12;;;;;;;12.43;9.30;;;9.80;99.90;;;;;;4993970;28;20467;-51
2022/04/29 03:45:39;;;;;;;9.67;8.50;;;9.80;99.90;;;;;;4993602;28;20429;-51
2022/04/29 03:48:07;;;;;;;9.70;8.80;;;9.90;99.90;;;;;;4993774;28;20558;-50
2022/04/29 03:50:34;;;;;;;8.20;7.50;;;9.80;99.90;;;;;;4993908;28;20454;-51
2022/04/29 03:53:02;;;;;;;9.70;8.40;;;9.70;99.90;;;;;;4993418;28;20452;-51
2022/04/29 03:55:32;;;;;;;12.30;9.67;;;9.60;99.90;;;;;;4993989;28;20451;-51
2022/04/29 03:58:02;;;;;;;10.13;8.60;;;9.50;99.90;;;;;;4993800;28;20475;-51
2022/04/29 04:00:32;;;;;;;9.60;8.60;;;9.50;99.90;;;;;;4993748;28;20460;-51
2022/04/29 04:03:00;;;;;;;16.80;9.33;;;9.60;99.90;;;;;;4993706;28;20490;-51
2022/04/29 04:05:28;;;;;;;9.87;9.00;;;9.50;99.90;;;;;;4993363;28;20851;-52
2022/04/29 04:07:56;;;;;;;9.90;9.03;;;9.50;99.90;;;;;;4993854;28;20480;-51
2022/04/29 04:10:23;;;;;;;9.83;8.83;;;9.50;99.90;;;;;;4993568;28;20484;-52
2022/04/29 04:12:52;;;;;;;12.50;9.63;;;9.50;99.90;;;;;;4993529;28;20536;-50
2022/04/29 04:15:23;;;;;;;10.73;9.63;;;9.50;99.90;;;;;;4993379;28;20459;-50
2022/04/29 04:17:50;;;;;;;10.13;8.43;;;9.50;99.90;;;;;;4994798;28;20872;-50
2022/04/29 04:20:18;;;;;;;10.70;8.47;;;9.50;99.90;;;;;;4996716;28;20454;-51
2022/04/29 04:22:45;;;;;;;13.70;10.50;;;9.50;99.90;;;;;;4996874;28;20460;-50
2022/04/29 04:25:14;;;;;;;11.47;10.37;;;9.40;99.90;;;;;;4996816;28;20539;-51
2022/04/29 04:27:41;;;;;;;11.27;10.17;;;9.40;99.90;;;;;;4996939;28;20502;-51
2022/04/29 04:30:09;;;;;;;13.23;10.20;;;9.50;99.90;;;;;;4996928;28;20542;-51
2022/04/29 04:32:40;;;;;;;11.97;9.63;;;9.50;99.90;;;;;;4997070;28;20456;-51
2022/04/29 04:35:08;;;;;;;10.63;9.73;;;9.60;99.90;;;;;;4996526;28;20551;-51
2022/04/29 04:37:35;;;;;;;11.43;10.20;;;9.60;99.90;;;;;;4996289;28;20852;-51
2022/04/29 04:40:04;;;;;;;11.53;10.43;;;9.60;99.90;;;;;;4996579;28;20484;-51
2022/04/29 04:42:32;;;;;;;10.70;9.60;;;9.70;99.90;;;;;;4996334;28;20539;-51
2022/04/29 04:44:59;;;;;;;9.67;8.73;;;9.60;99.90;;;;;;4996417;28;20450;-51
2022/04/29 04:47:26;;;;;;;12.70;11.00;;;9.60;99.90;;;;;;4996346;28;20935;-51
2022/04/29 04:49:55;;;;;;;10.73;9.60;;;9.70;99.90;;;;;;4996567;28;20448;-50
2022/04/29 04:52:23;;;;;;;11.33;10.33;;;9.80;99.90;;;;;;4996217;28;20460;-50
2022/04/29 04:54:50;;;;;;;12.23;10.77;;;9.80;99.90;;;;;;4996218;28;21013;-52
2022/04/29 04:57:17;;;;;;;11.67;10.60;;;9.80;99.90;;;;;;4996185;28;21014;-52
2022/04/29 04:59:44;;;;;;;10.57;9.57;;;9.90;99.90;;;;;;4996055;28;20554;-50
2022/04/29 05:02:11;;;;;;;10.93;9.93;;;9.80;99.90;;;;;;4996072;28;20448;-51
2022/04/29 05:04:39;;;;;;;12.67;10.17;;;10.00;99.90;;;;;;4996125;28;20939;-52
2022/04/29 05:07:07;;;;;;;11.33;10.07;;;10.10;99.90;;;;;;4996256;28;20560;-51
2022/04/29 05:09:34;;;;;;;10.73;9.80;;;10.10;99.90;;;;;;4995885;28;20974;-51
2022/04/29 05:12:02;;;;;;;12.83;10.03;;;10.20;99.90;;;;;;4996095;28;20474;-51
2022/04/29 05:14:29;;;;;;;13.13;11.57;;;10.30;99.90;;;;;;4995704;28;20480;-51
2022/04/29 05:16:56;;;;;;;12.87;11.67;;;10.30;99.90;;;;;;4996057;28;20458;-51
2022/04/29 05:19:23;;;;;;;12.63;11.53;;;10.40;99.90;;;;;;4996049;28;20475;-51
2022/04/29 05:21:51;;;;;;;12.07;10.80;;;10.40;99.90;;;;;;4995928;28;20539;-51
2022/04/29 05:24:19;;;;;;;13.73;12.10;;;10.40;99.90;;;;;;4995534;28;20506;-51
2022/04/29 05:26:47;;;;;;;13.57;11.43;;;10.40;99.90;;;;;;4995697;28;20448;-51
2022/04/29 05:29:14;;;;;;;13.93;12.60;;;10.50;99.90;;;;;;4994459;28;20981;-51
2022/04/29 05:31:41;;;;;;;13.53;12.23;;;10.50;99.90;;;;;;4995799;28;20835;-51
2022/04/29 05:34:08;;;;;;;13.17;11.90;;;10.60;99.90;;;;;;4995354;28;20493;-51
2022/04/29 05:36:36;;;;;;;12.30;11.20;;;10.60;99.90;;;;;;4995175;28;20487;-51
2022/04/29 05:44:35;;;;;;;19.67;12.10;;;10.70;99.90;;;;;;4995314;28;20412;-51
2022/04/29 05:47:03;;;;;;;11.73;10.50;;;10.90;99.90;;;;;;4995261;28;20471;-51
2022/04/29 05:49:30;;;;;;;12.93;11.40;;;10.90;99.90;;;;;;4995075;28;20522;-51
2022/04/29 05:51:57;;;;;;;13.43;11.53;;;10.90;99.90;;;;;;4995081;28;20494;-52
2022/04/29 05:54:24;;;;;;;12.17;10.93;;;11.00;99.90;;;;;;4995195;28;20484;-51
2022/04/29 05:56:53;;;;;;;13.83;11.63;;;11.10;99.90;;;;;;4995274;28;20547;-51
2022/04/29 05:59:20;;;;;;;16.73;12.00;;;11.00;99.90;;;;;;4994854;28;20478;-52
2022/04/29 06:01:47;;;;;;;12.37;11.00;;;11.00;99.90;;;;;;4994946;28;20831;-52
2022/04/29 06:04:14;;;;;;;15.70;12.10;;;11.20;99.90;;;;;;4995164;28;20458;-52
2022/04/29 06:06:42;;;;;;;15.13;10.83;;;11.30;99.90;;;;;;4995044;28;20910;-52
2022/04/29 06:09:09;;;;;;;13.50;12.20;;;11.10;99.90;;;;;;4994643;28;20472;-52
2022/04/29 06:11:36;;;;;;;14.93;13.37;;;11.20;99.90;;;;;;4994941;28;20527;-52
2022/04/29 06:14:05;;;;;;;15.77;13.33;;;11.30;99.90;;;;;;4994713;28;20507;-52
2022/04/29 06:16:32;;;;;;;15.40;11.90;;;11.50;99.90;;;;;;4994835;28;20459;-52
2022/04/29 06:18:59;;;;;;;16.70;13.23;;;11.40;99.90;;;;;;4994940;28;20586;-50
2022/04/29 06:21:26;;;;;;;16.97;12.77;;;11.30;99.90;;;;;;4994778;28;20456;-50
2022/04/29 06:23:54;;;;;;;13.57;12.23;;;11.30;99.90;;;;;;4994676;28;20444;-50
2022/04/29 06:26:21;;;;;;;14.93;13.40;;;11.40;99.90;;;;;;4994716;28;20483;-52
2022/04/29 06:28:48;;;;;;;15.37;13.53;;;11.40;99.90;;;;;;4994302;28;20474;-50
2022/04/29 06:31:17;;;;;;;16.03;13.10;;;11.60;99.90;;;;;;4994333;28;20452;-50
2022/04/29 06:33:44;;;;;;;13.43;12.17;;;11.80;99.90;;;;;;4994498;28;20432;-51
2022/04/29 06:36:12;;;;;;;16.70;11.13;;;11.80;99.90;;;;;;4994074;28;20480;-51
2022/04/29 06:38:40;;;;;;;17.00;14.20;;;11.90;99.90;;;;;;4994473;28;20858;-50
2022/04/29 06:41:07;;;;;;;18.17;13.57;;;11.90;99.90;;;;;;4993922;28;20463;-50
2022/04/29 06:43:34;;;;;;;17.10;14.97;;;12.00;99.90;;;;;;4994418;28;20480;-51
2022/04/29 06:46:02;;;;;;;16.00;14.30;;;12.30;99.90;;;;;;4994044;28;20448;-51
2022/04/29 06:48:30;;;;;;;14.53;12.83;;;12.30;99.90;;;;;;4994629;28;20472;-51
2022/04/29 06:50:58;;;;;;;14.80;12.90;;;12.50;99.90;;;;;;4994347;28;20543;-51
2022/04/29 06:53:25;;;;;;;17.33;14.13;;;12.60;99.90;;;;;;4993894;28;20456;-51
2022/04/29 06:55:53;;;;;;;14.50;13.13;;;12.70;99.90;;;;;;4993999;28;20475;-50
2022/04/29 06:58:21;;;;;;;17.27;14.30;;;12.80;99.90;;;;;;4993942;28;20563;-51
2022/04/29 07:00:48;;;;;;;12.83;11.30;;;12.80;99.90;;;;;;4993821;28;20562;-51
2022/04/29 07:03:15;;;;;;;14.43;12.70;;;12.90;99.90;;;;;;4993758;28;20531;-51
2022/04/29 07:05:43;;;;;;;16.87;12.73;;;13.20;99.90;;;;;;4994253;28;20456;-51
2022/04/29 07:08:12;;;;;;;16.30;11.73;;;13.30;99.90;;;;;;4994121;28;20479;-51
2022/04/29 07:10:40;;;;;;;13.80;12.40;;;13.50;99.90;;;;;;4994101;28;20447;-51
2022/04/29 07:13:07;;;;;;;12.93;11.70;;;13.70;99.90;;;;;;4994096;28;20452;-51
2022/04/29 07:15:34;;;;;;;14.30;12.30;;;13.90;99.90;;;;;;4993704;28;20490;-51
2022/04/29 07:18:01;;;;;;;16.70;12.17;;;13.90;99.90;;;;;;4993714;28;20908;-51
2022/04/29 07:20:28;;;;;;;13.23;11.93;;;14.00;99.90;;;;;;4993904;28;20935;-51
2022/04/29 07:22:57;;;;;;;12.33;11.13;;;14.20;99.90;;;;;;4993957;28;20480;-51
2022/04/29 07:25:25;;;;;;;12.50;11.10;;;14.10;99.90;;;;;;4993974;28;20530;-51
2022/04/29 07:27:53;;;;;;;13.13;11.60;;;14.20;99.90;;;;;;4993687;28;21050;-51
2022/04/29 07:30:20;;;;;;;14.67;11.90;;;14.10;99.90;;;;;;4994028;28;20974;-54
2022/04/29 07:32:47;;;;;;;14.03;12.50;;;14.20;99.90;;;;;;4993521;28;20459;-51
2022/04/29 07:43:26;;;;;;;17.50;11.80;;;14.70;99.90;;;;;;4993588;28;20403;-51
2022/04/29 07:45:54;;;;;;;16.27;11.13;;;14.70;99.90;;;;;;4993402;28;20455;-51
2022/04/29 07:48:22;;;;;;;12.63;11.33;;;14.80;99.90;;;;;;4993364;28;20475;-51
2022/04/29 07:50:49;;;;;;;15.63;11.60;;;15.00;99.90;;;;;;4993797;28;20470;-53
2022/04/29 07:53:18;;;;;;;11.30;10.10;;;15.20;99.90;;;;;;4995473;28;20576;-56
2022/04/29 07:55:45;;;;;;;11.43;10.27;;;16.10;99.90;;;;;;4997341;28;20488;-56
2022/04/29 07:58:13;;;;;;;13.03;11.63;;;16.70;99.30;;;;;;4997159;28;20468;-56
2022/04/29 08:00:40;;;;;;;10.43;9.33;;;17.70;99.50;;;;;;4997049;28;20539;-56
2022/04/29 08:03:07;;;;;;;10.70;7.90;;;18.40;98.80;;;;;;4997053;28;20436;-57
2022/04/29 08:05:34;;;;;;;8.17;7.10;;;18.70;97.60;;;;;;4997225;28;20435;-56
2022/04/29 08:08:02;;;;;;;11.17;10.10;;;19.00;96.00;;;;;;4997344;28;20476;-57
2022/04/29 08:10:32;;;;;;;11.27;10.37;;;19.00;95.20;;;;;;4997237;28;20460;-56
2022/04/29 08:13:00;;;;;;;8.53;7.73;;;18.40;95.50;;;;;;4997133;28;20452;-57
2022/04/29 08:15:27;;;;;;;10.73;7.80;;;18.30;95.10;;;;;;4997200;28;20567;-56
2022/04/29 08:17:55;;;;;;;9.33;8.47;;;18.10;95.10;;;;;;4996771;28;20550;-57
2022/04/29 08:20:22;;;;;;;14.87;11.37;;;18.30;94.90;;;;;;4996775;28;20539;-56
2022/04/29 08:22:49;;;;;;;13.67;10.30;;;18.20;93.50;;;;;;4996841;28;20538;-57
2022/04/29 08:25:19;;;;;;;14.43;10.13;;;18.40;93.10;;;;;;4996698;28;20484;-56
2022/04/29 08:27:50;;;;;;;8.80;7.90;;;18.10;91.50;;;;;;4996943;28;20530;-57
2022/04/29 08:30:17;;;;;;;11.00;10.00;;;18.60;91.50;;;;;;4996624;28;20486;-57
2022/04/29 08:32:46;;;;;;;12.77;9.67;;;19.70;88.70;;;;;;4996939;28;20448;-57
2022/04/29 08:35:15;;;;;;;10.90;9.87;;;20.70;88.70;;;;;;4996756;28;20488;-57
2022/04/29 08:37:43;;;;;;;12.37;9.73;;;21.90;83.10;;;;;;4996649;28;21013;-57
2022/04/29 08:40:12;;;;;;;11.77;8.83;;;22.20;82.70;;;;;;4996488;28;21139;-57
2022/04/29 08:42:40;;;;;;;11.83;9.47;;;22.30;75.90;;;;;;4996456;28;20452;-57
2022/04/29 08:45:11;;;;;;;11.30;8.73;;;21.30;77.30;;;;;;4996650;28;20448;-57
2022/04/29 08:47:40;;;;;;;9.80;8.80;;;21.40;75.50;;;;;;4996380;28;20436;-58
2022/04/29 08:50:10;;;;;;;10.20;9.10;;;21.70;74.30;;;;;;4996272;28;20456;-57
2022/04/29 08:52:37;;;;;;;7.37;6.70;;;22.20;73.40;;;;;;4996171;28;20959;-57
2022/04/29 09:00:39;;;;;;;8.03;7.30;;;23.00;68.90;;;;;;4996023;28;20419;-57
2022/04/29 09:03:07;;;;;;;11.53;7.47;;;23.30;68.20;;;;;;4995867;28;20432;-57
2022/04/29 09:05:35;;;;;;;8.37;7.30;;;23.30;68.00;;;;;;4996192;28;20569;-57
2022/04/29 09:08:04;;;;;;;8.57;7.67;;;22.80;67.50;;;;;;4995727;28;20491;-57
2022/04/29 09:10:34;;;;;;;8.10;6.93;;;22.20;67.40;;;;;;4996243;28;20551;-57
2022/04/29 09:13:12;;;;;;;8.20;7.13;;;22.90;67.20;;;;;;4995645;28;20967;-57
2022/04/29 09:15:47;;;;;;;6.83;6.13;;;23.40;66.30;;;;;;4995584;28;20786;-58
2022/04/29 09:18:14;;;;;;;7.50;6.77;;;23.70;72.70;;;;;;4995554;28;20452;-57
2022/04/29 09:20:42;;;;;;;7.97;6.93;;;23.60;58.30;;;;;;4995566;28;20547;-57
2022/04/29 09:23:10;;;;;;;7.13;6.40;;;22.60;58.70;;;;;;4995549;28;20522;-57
2022/04/29 09:25:38;;;;;;;7.37;6.77;;;23.10;62.00;;;;;;4995058;28;20502;-56
2022/04/29 09:28:06;;;;;;;8.37;6.80;;;23.10;59.70;;;;;;4995360;28;20550;-56
2022/04/29 09:30:39;;;;;;;7.33;5.97;;;22.90;62.60;;;;;;4995398;28;20822;-57
2022/04/29 09:33:18;;;;;;;7.93;7.23;;;23.80;59.20;;;;;;4995790;28;20459;-57
2022/04/29 09:35:46;;;;;;;5.63;4.90;;;23.40;60.30;;;;;;4995411;28;20496;-57
2022/04/29 09:41:00;;;;;;;7.53;6.83;;;24.50;58.30;;;;;;4995464;28;20412;-57
2022/04/29 09:43:35;;;;;;;7.07;5.70;;;24.90;58.00;;;;;;4995628;28;20506;-58
2022/04/29 09:46:17;;;;;;;7.07;6.10;;;24.40;55.60;;;;;;4995488;28;20451;-57
2022/04/29 09:48:59;;;;;;;7.83;7.03;;;;;;;;;;4995074;28;20559;-57
2022/04/29 09:51:43;;;;;;;9.40;6.30;;;22.40;55.80;;;;;;4995399;28;20535;-57
2022/04/29 09:54:14;;;;;;;7.80;6.23;;;22.40;56.90;;;;;;4995123;28;20895;-57
2022/04/29 09:56:41;;;;;;;6.43;5.73;;;22.40;59.20;;;;;;4995011;28;20906;-57
2022/04/29 09:59:09;;;;;;;6.80;5.37;;;23.10;58.30;;;;;;4995456;28;20468;-57
2022/04/29 10:01:36;;;;;;;6.07;5.50;;;23.10;57.80;;;;;;4995240;28;20510;-57
2022/04/29 10:04:05;;;;;;;6.20;5.13;;;23.10;57.50;;;;;;4994825;28;20448;-58
2022/04/29 10:06:34;;;;;;;5.83;5.23;;;23.50;58.30;;;;;;4995027;28;20470;-58
2022/04/29 10:09:01;;;;;;;8.47;6.27;;;22.90;57.00;;;;;;4995217;28;20471;-57
2022/04/29 10:11:29;;;;;;;5.60;5.20;;;22.40;56.50;;;;;;4994985;28;20881;-57
2022/04/29 10:14:04;;;;;;;8.60;6.07;;;21.70;57.00;;;;;;4994874;28;20551;-57
2022/04/29 10:16:34;;;;;;;5.60;5.10;;;21.50;57.60;;;;;;4994095;28;20478;-57
2022/04/29 10:21:58;;;;;;;6.03;5.43;;;21.10;57.60;;;;;;4994500;28;20910;-57
2022/04/29 10:24:26;;;;;;;5.27;4.77;;;22.00;57.20;;;;;;4994663;28;20452;-57
2022/04/29 10:26:55;;;;;;;5.63;4.23;;;23.30;57.90;;;;;;4994706;28;20448;-58
2022/04/29 10:29:23;;;;;;;5.40;4.97;;;23.40;56.50;;;;;;4994526;28;20480;-57
2022/04/29 10:32:07;;;;;;;5.97;5.30;;;23.50;55.20;;;;;;4994621;28;20879;-58
2022/04/29 10:34:36;;;;;;;5.83;5.30;;;23.50;55.00;;;;;;4994322;28;21019;-58
2022/04/29 10:37:11;;;;;;;4.50;4.10;;;23.10;54.40;;;;;;4994021;28;20822;-58
2022/04/29 10:39:39;;;;;;;6.67;5.33;;;23.50;56.60;;;;;;4994290;28;20468;-58
2022/04/29 10:42:09;;;;;;;5.80;5.23;;;23.30;55.10;;;;;;4994093;28;20459;-57
2022/04/29 10:44:59;;;;;;;6.50;4.47;;;23.50;55.70;;;;;;4994053;28;20479;-57
2022/04/29 10:47:36;;;;;;;4.53;4.13;;;24.20;55.40;;;;;;4994353;28;20460;-57
2022/04/29 10:50:39;;;;;;;4.10;3.70;;;24.50;53.70;;;;;;4994090;28;20444;-57
2022/04/29 10:53:13;;;;;;;8.53;4.20;;;24.70;52.10;;;;;;4994442;28;20954;-57
2022/04/29 10:55:40;;;;;;;5.50;4.17;;;24.40;48.20;;;;;;4994137;28;21029;-57
2022/04/29 10:58:20;;;;;;;4.07;3.67;;;24.10;48.70;;;;;;4994267;28;20475;-57
2022/04/29 11:00:56;;;;;;;4.90;3.73;;;23.70;48.80;;;;;;4994239;28;20428;-57
2022/04/29 11:03:41;;;;;;;4.50;4.10;;;24.40;49.80;;;;;;4993852;28;20594;-57
2022/04/29 11:06:11;;;;;;;5.10;4.50;;;25.20;48.90;;;;;;4993621;28;20849;-56
2022/04/29 11:08:39;;;;;;;6.27;3.90;;;24.70;48.60;;;;;;4994373;28;20480;-57
2022/04/29 11:11:06;;;;;;;6.67;5.60;;;24.80;49.30;;;;;;4993513;28;20490;-57
2022/04/29 11:13:37;;;;;;;4.20;3.90;;;25.20;50.10;;;;;;4993470;28;21007;-57
2022/04/29 11:16:12;;;;;;;4.97;3.90;;;25.20;49.30;;;;;;4993604;28;20923;-57
2022/04/29 11:18:41;;;;;;;4.57;4.07;;;24.90;49.30;;;;;;4993925;28;20554;-57
2022/04/29 11:26:44;;;;;;;5.90;4.23;;;23.80;48.50;;;;;;4993769;28;20902;-57
2022/04/29 11:29:12;;;;;;;5.07;4.40;;;23.50;49.00;;;;;;4997558;28;20479;-56
2022/04/29 11:31:39;;;;;;;4.23;3.83;;;23.30;49.30;;;;;;4997607;28;20448;-57
2022/04/29 11:34:08;;;;;;;5.80;4.13;;;23.40;49.80;;;;;;5001826;28;20542;-57
2022/04/29 11:36:37;;;;;;;4.93;4.53;;;22.90;48.30;;;;;;5015202;28;20497;-57
2022/04/29 11:39:09;;;;;;;7.13;4.40;;;22.60;49.50;;;;;;5015256;28;20481;-57
2022/04/29 11:41:37;;;;;;;8.03;4.10;;;22.30;49.00;;;;;;5017124;28;20521;-56
2022/04/29 11:44:04;;;;;;;4.63;4.23;;;22.10;47.80;;;;;;5008749;28;20463;-54
2022/04/29 11:46:32;;;;;;;4.77;4.27;;;21.70;47.10;;;;;;5002973;28;20459;-55
2022/04/29 11:49:01;;;;;;;6.07;3.90;;;21.30;49.40;;;;;;5003666;28;20489;-55
2022/04/29 11:51:30;;;;;;;4.20;3.57;;;21.70;47.90;;;;;;5003573;28;20554;-57
2022/04/29 11:54:01;;;;;;;4.77;4.23;;;21.90;49.10;;;;;;4999665;28;20927;-60
2022/04/29 11:56:36;;;;;;;4.30;3.90;;;22.20;49.30;;;;;;5001798;28;20483;-63
2022/04/29 11:59:07;;;;;;;4.13;3.73;;;22.10;48.30;;;;;;5010968;28;20505;-59
2022/04/29 12:01:35;;;;;;;4.80;4.40;;;21.40;48.60;;;;;;4999806;28;20553;-63
2022/04/29 12:04:02;;;;;;;5.53;3.87;;;21.40;50.20;;;;;;5001118;28;20537;-57
2022/04/29 12:06:30;;;;;;;5.63;5.13;;;21.90;50.60;;;;;;5001090;28;20467;-59
2022/04/29 12:08:59;;;;;;;4.07;3.77;;;21.00;47.20;;;;;;5011529;28;20484;-59
2022/04/29 12:11:27;;;;;;;5.00;4.60;;;20.50;50.40;;;;;;5006357;28;20470;-60
2022/04/29 12:13:55;;;;;;;3.73;3.43;;;20.90;48.00;;;;;;5006244;28;20467;-61
2022/04/29 12:16:26;;;;;;;5.17;4.60;;;21.20;51.30;;;;;;5002876;28;20478;-59
2022/04/29 12:18:53;;;;;;;6.43;4.93;;;20.80;49.50;;;;;;5004895;28;21018;-59
2022/04/29 12:21:24;;;;;;;5.03;4.63;;;20.80;48.20;;;;;;5006383;28;20466;-56
2022/04/29 12:23:52;;;;;;;5.37;4.87;;;20.20;47.60;;;;;;5005876;28;20460;-59
2022/04/29 12:26:20;;;;;;;5.60;4.83;;;20.40;48.20;;;;;;5006216;28;20889;-60
2022/04/29 12:28:55;;;;;;;5.40;4.77;;;20.70;49.50;;;;;;5001053;28;20977;-59
2022/04/29 12:36:54;;;;;;;4.37;3.80;;;22.70;53.20;;;;;;5007684;28;20497;-58
2022/04/29 12:39:25;;;;;;;4.80;4.40;;;23.60;50.50;;;;;;4998760;28;20845;-58
2022/04/29 12:42:12;;;;;;;8.40;3.90;;;23.40;48.00;;;;;;5007486;28;20814;-57
2022/04/29 12:45:07;;;;;;;4.90;4.40;;;23.30;49.70;;;;;;5002301;28;20459;-59
2022/04/29 12:47:38;;;;;;;4.43;4.00;;;22.80;45.50;;;;;;4998852;28;20542;-56
2022/04/29 12:50:23;;;;;;;4.60;4.10;;;22.10;46.80;;;;;;5009388;28;20950;-59
2022/04/29 12:52:57;;;;;;;5.17;4.73;;;22.00;47.70;;;;;;5002458;28;20467;-60
2022/04/29 12:55:24;;;;;;;5.37;4.80;;;21.90;46.40;;;;;;5001295;28;20463;-58
2022/04/29 12:57:53;;;;;;;4.37;3.97;;;22.00;46.40;;;;;;5003949;28;20825;-56
2022/04/29 13:00:26;;;;;;;5.40;4.90;;;22.10;48.30;;;;;;5002252;28;20539;-55
2022/04/29 13:03:01;;;;;;;5.13;4.63;;;21.90;46.70;;;;;;5002873;28;20475;-58
2022/04/29 13:05:28;;;;;;;4.63;4.13;;;22.00;47.40;;;;;;5009930;28;20537;-59
2022/04/29 13:07:56;;;;;;;5.30;3.93;;;22.40;48.30;;;;;;5007473;28;20482;-58
2022/04/29 13:10:23;;;;;;;4.50;4.10;;;23.50;50.40;;;;;;5005552;28;20890;-57
2022/04/29 13:12:53;;;;;;;5.70;4.40;;;24.00;49.40;;;;;;5005938;28;20534;-60
2022/04/29 13:15:21;;;;;;;4.67;4.27;;;23.50;48.60;;;;;;5006001;28;20873;-57
2022/04/29 13:17:49;;;;;;;5.60;4.47;;;23.40;48.50;;;;;;5000972;28;20487;-54
2022/04/29 13:20:17;;;;;;;4.87;4.47;;;23.80;49.60;;;;;;5006662;28;20462;-60
2022/04/29 13:22:44;;;;;;;5.60;4.10;;;23.80;48.30;;;;;;5005723;28;20463;-57
2022/04/29 13:25:11;;;;;;;4.87;4.40;;;23.10;45.80;;;;;;5006099;28;20468;-57
2022/04/29 13:27:38;;;;;;;5.27;4.87;;;23.00;46.60;;;;;;5007177;28;21230;-60